Time;durP1;ratioP1;P1;durP2;ratioP2;P2;SDS_P1;SDS_P2;PMS_P1;PMS_P2;Temp;Humidity;BMP_temperature;BMP_pressure;BME280_temperature;BME280_humidity;BME280_pressure;Samples;Min_cycle;Max_cycle;Signal;HPM_P1;HPM_P2
2023/06/13 00:01:24;;;;;;;4.87;4.47;;;;;;;15.06;100.00;101997.56;5033578;28;20490;-44
2023/06/13 00:03:53;;;;;;;7.93;4.40;;;;;;;15.03;100.00;101995.25;5033177;28;20474;-44
2023/06/13 00:06:20;;;;;;;5.90;4.30;;;;;;;15.04;100.00;101995.06;5033496;28;21201;-43
2023/06/13 00:08:48;;;;;;;5.73;4.43;;;;;;;15.03;100.00;101995.25;5033602;28;20432;-45
2023/06/13 00:11:16;;;;;;;4.47;4.10;;;;;;;15.01;100.00;101994.63;5033350;28;20861;-45
2023/06/13 00:13:46;;;;;;;5.10;4.60;;;;;;;15.00;100.00;102001.03;5032891;28;20865;-45
2023/06/13 00:16:14;;;;;;;5.43;4.40;;;;;;;14.95;100.00;101991.72;5033287;28;20440;-45
2023/06/13 00:18:43;;;;;;;5.60;4.70;;;;;;;14.92;100.00;101992.09;5033550;28;20893;-43
2023/06/13 00:21:11;;;;;;;4.97;4.27;;;;;;;14.88;100.00;101988.13;5033311;28;20432;-45
2023/06/13 00:23:39;;;;;;;7.60;4.57;;;;;;;14.88;100.00;101988.13;5032644;28;20461;-44
2023/06/13 00:26:06;;;;;;;11.37;5.57;;;;;;;14.87;100.00;101996.41;5033099;28;20443;-44
2023/06/13 00:28:34;;;;;;;7.37;4.50;;;;;;;14.84;100.00;101992.22;5028870;28;20500;-44
2023/06/13 00:31:03;;;;;;;4.50;4.20;;;;;;;14.84;100.00;101994.09;5033391;28;20467;-44
2023/06/13 00:33:31;;;;;;;5.20;4.80;;;;;;;14.82;100.00;101996.13;5032671;28;20495;-44
2023/06/13 00:35:59;;;;;;;5.63;4.57;;;;;;;14.79;100.00;101988.47;5033144;28;20440;-44
2023/06/13 00:38:29;;;;;;;4.90;4.50;;;;;;;14.77;100.00;101990.53;5032984;28;20456;-44
2023/06/13 00:40:56;;;;;;;4.90;4.60;;;;;;;14.74;100.00;101991.75;5032810;28;20429;-44
2023/06/13 00:43:26;;;;;;;7.77;4.77;;;;;;;14.69;100.00;101993.34;5031426;28;20487;-44
2023/06/13 00:45:54;;;;;;;5.23;4.73;;;;;;;14.63;100.00;101989.59;5033338;28;20426;-44
2023/06/13 00:48:24;;;;;;;6.27;4.57;;;;;;;14.59;100.00;101990.16;5032893;28;20478;-46
2023/06/13 00:50:54;;;;;;;6.90;5.07;;;;;;;14.54;100.00;101987.22;5032852;28;20485;-43
2023/06/13 00:53:22;;;;;;;5.37;4.87;;;;;;;14.51;100.00;101996.50;5032116;28;20463;-45
2023/06/13 00:55:51;;;;;;;5.77;5.30;;;;;;;14.49;100.00;101993.16;5032481;28;20934;-43
2023/06/13 00:58:19;;;;;;;4.33;4.10;;;;;;;14.47;100.00;101995.19;5032546;28;20479;-44
2023/06/13 01:00:48;;;;;;;5.23;4.70;;;;;;;14.42;100.00;101999.50;5032703;28;20436;-45
2023/06/13 01:03:16;;;;;;;4.87;4.50;;;;;;;14.38;100.00;101989.13;5031953;28;20456;-44
2023/06/13 01:05:48;;;;;;;4.73;4.33;;;;;;;14.36;100.00;101988.50;5032484;28;20511;-46
2023/06/13 01:08:18;;;;;;;6.17;4.53;;;;;;;14.37;100.00;101992.81;5032265;28;20526;-43
2023/06/13 01:10:52;;;;;;;5.30;4.97;;;;;;;14.35;100.00;101994.88;5032708;28;20428;-43
2023/06/13 01:13:27;;;;;;;4.63;4.33;;;;;;;14.35;100.00;101994.88;5031938;28;20467;-44
2023/06/13 01:16:02;;;;;;;4.93;4.53;;;;;;;14.36;100.00;101998.41;5032411;28;20469;-44
2023/06/13 01:18:35;;;;;;;4.87;4.47;;;;;;;14.36;100.00;101990.34;5032313;28;20463;-43
2023/06/13 01:21:06;;;;;;;6.90;4.83;;;;;;;14.34;100.00;101992.38;5032557;28;20841;-45
2023/06/13 01:23:40;;;;;;;5.17;4.10;;;;;;;14.32;100.00;101989.91;5031655;28;20518;-45
2023/06/13 01:26:13;;;;;;;5.30;4.47;;;;;;;14.29;100.00;101994.78;5032343;28;20428;-44
2023/06/13 01:28:44;;;;;;;5.03;4.60;;;;;;;14.26;100.00;101987.09;5031835;28;20487;-45
2023/06/13 01:31:17;;;;;;;4.97;4.67;;;;;;;14.25;100.00;101993.47;5031948;28;20436;-44
2023/06/13 01:33:46;;;;;;;6.63;4.37;;;;;;;14.23;100.00;101987.50;5031720;28;20468;-46
2023/06/13 01:36:14;;;;;;;5.10;4.70;;;;;;;14.19;100.00;101981.66;5032072;28;20488;-47
2023/06/13 01:38:43;;;;;;;5.47;4.17;;;;;;;14.20;100.00;101998.59;5032062;28;20783;-44
2023/06/13 01:41:10;;;;;;;10.10;4.90;;;;;;;14.17;100.00;101994.44;5031869;28;20934;-45
2023/06/13 01:43:38;;;;;;;10.37;5.60;;;;;;;14.14;100.00;101994.00;5031251;28;20487;-45
2023/06/13 01:46:12;;;;;;;8.67;5.10;;;;;;;14.08;100.00;101994.75;5031992;28;20494;-48
2023/06/13 01:48:51;;;;;;;9.60;4.97;;;;;;;14.05;100.00;101984.41;5031887;28;20511;-43
2023/06/13 01:51:28;;;;;;;7.53;4.83;;;;;;;14.02;100.00;101990.13;5031868;28;20434;-44
2023/06/13 01:54:01;;;;;;;4.80;4.40;;;;;;;13.96;100.00;101982.84;5033066;28;20463;-44
2023/06/13 01:56:32;;;;;;;6.83;4.30;;;;;;;13.91;100.00;101983.41;5036256;28;20982;-48
2023/06/13 01:59:03;;;;;;;4.70;4.40;;;;;;;13.91;100.00;101974.53;5036172;28;20440;-47
2023/06/13 02:01:35;;;;;;;5.30;4.90;;;;;;;13.88;100.00;101982.97;5035673;28;20428;-45
2023/06/13 02:04:04;;;;;;;5.40;5.00;;;;;;;13.85;100.00;101989.53;5035418;28;20471;-44
2023/06/13 02:06:33;;;;;;;5.20;4.80;;;;;;;13.82;100.00;101984.53;5035800;28;20494;-44
2023/06/13 02:09:01;;;;;;;5.30;5.00;;;;;;;13.78;100.00;101986.75;5035684;28;20468;-44
2023/06/13 02:11:29;;;;;;;5.73;4.80;;;;;;;13.73;100.00;101983.00;5035728;28;20431;-44
2023/06/13 02:13:57;;;;;;;4.90;4.50;;;;;;;13.73;100.00;101983.00;5035299;28;20992;-46
2023/06/13 02:16:30;;;;;;;6.17;4.80;;;;;;;13.69;100.00;101985.22;5035606;28;20502;-46
2023/06/13 02:19:00;;;;;;;4.97;4.67;;;;;;;13.67;100.00;101983.72;5035468;28;20482;-45
2023/06/13 02:21:30;;;;;;;5.30;4.90;;;;;;;13.65;100.00;101981.22;5035281;28;20428;-44
2023/06/13 02:23:58;;;;;;;8.37;5.47;;;;;;;13.60;100.00;101977.44;5035158;28;20467;-46
2023/06/13 02:26:28;;;;;;;5.13;4.73;;;;;;;13.56;100.00;101978.84;5035565;28;20432;-44
2023/06/13 02:28:57;;;;;;;4.47;4.27;;;;;;;13.51;100.00;101971.34;5031512;28;20483;-47
2023/06/13 02:31:26;;;;;;;7.97;4.63;;;;;;;13.48;100.00;101976.25;5035124;28;20451;-48
2023/06/13 02:33:54;;;;;;;5.47;4.93;;;;;;;13.48;100.00;101976.25;5034897;28;20467;-44
2023/06/13 02:36:23;;;;;;;4.97;4.57;;;;;;;13.45;100.00;101974.78;5034982;28;20458;-46
2023/06/13 02:38:51;;;;;;;5.03;4.57;;;;;;;13.45;100.00;101973.94;5035520;28;20767;-44
2023/06/13 02:41:19;;;;;;;4.83;4.53;;;;;;;13.45;100.00;101974.78;5035029;28;20436;-46
2023/06/13 02:43:46;;;;;;;7.23;5.30;;;;;;;13.44;100.00;101974.97;5034848;28;20947;-45
2023/06/13 02:46:15;;;;;;;4.50;4.23;;;;;;;13.42;100.00;101980.50;5034985;28;20946;-45
2023/06/13 02:48:43;;;;;;;5.60;5.20;;;;;;;13.42;100.00;101974.31;5035053;28;20483;-45
2023/06/13 02:51:12;;;;;;;5.73;5.33;;;;;;;13.39;100.00;101977.34;5035414;28;20436;-44
2023/06/13 02:53:41;;;;;;;5.00;4.70;;;;;;;13.38;100.00;101975.72;5034491;28;20519;-46
2023/06/13 02:56:08;;;;;;;4.93;4.57;;;;;;;13.36;100.00;101975.06;5035027;28;20490;-46
2023/06/13 02:58:36;;;;;;;5.37;4.87;;;;;;;13.35;100.00;101974.22;5034955;28;20539;-45
2023/06/13 03:01:04;;;;;;;5.17;4.87;;;;;;;13.34;100.00;101966.38;5035040;28;20471;-44
2023/06/13 03:03:34;;;;;;;8.23;5.20;;;;;;;13.31;100.00;101967.59;5034136;28;20543;-44
2023/06/13 03:06:02;;;;;;;5.53;5.13;;;;;;;13.28;100.00;101966.09;5034213;28;20515;-44
2023/06/13 03:08:30;;;;;;;6.97;4.93;;;;;;;13.27;100.00;101968.94;5034523;28;21032;-47
2023/06/13 03:10:59;;;;;;;7.10;4.43;;;;;;;13.25;100.00;101974.50;5034828;28;20439;-43
2023/06/13 03:13:28;;;;;;;5.27;4.80;;;;;;;13.21;100.00;101962.50;5034159;28;20881;-44
2023/06/13 03:15:56;;;;;;;4.60;4.20;;;;;;;13.22;100.00;101957.97;5034670;28;20452;-44
2023/06/13 03:18:25;;;;;;;5.63;5.33;;;;;;;13.24;100.00;101958.59;5034492;28;20540;-45
2023/06/13 03:20:53;;;;;;;7.47;4.53;;;;;;;13.23;100.00;101955.09;5034587;28;20526;-44
2023/06/13 03:23:20;;;;;;;4.73;4.40;;;;;;;13.24;100.00;101958.59;5033715;28;20885;-45
2023/06/13 03:25:48;;;;;;;4.97;4.67;;;;;;;13.57;100.00;101964.41;5034207;28;21029;-44
2023/06/13 03:28:17;;;;;;;5.10;4.80;;;;;;;14.48;100.00;101953.09;5034157;28;20870;-45
2023/06/13 03:30:45;;;;;;;4.87;4.43;;;;;;;15.34;100.00;101958.06;5034438;28;20460;-47
2023/06/13 03:33:13;;;;;;;4.80;4.60;;;;;;;15.44;100.00;101953.97;5033770;28;20551;-46
2023/06/13 03:35:41;;;;;;;6.60;4.50;;;;;;;15.25;100.00;101945.81;5034135;28;20482;-43
2023/06/13 03:38:09;;;;;;;8.80;5.00;;;;;;;15.13;100.00;101950.09;5033696;28;20461;-46
2023/06/13 03:40:37;;;;;;;4.70;4.30;;;;;;;14.97;100.00;101945.84;5034219;28;20847;-45
2023/06/13 03:43:04;;;;;;;13.73;5.33;;;;;;;14.88;100.00;101955.06;5033331;28;20483;-44
2023/06/13 03:45:34;;;;;;;4.90;4.60;;;;;;;14.86;100.00;101951.75;5034139;28;20963;-45
2023/06/13 03:48:02;;;;;;;6.13;5.13;;;;;;;14.80;100.00;101949.84;5033749;28;20456;-45
2023/06/13 03:50:29;;;;;;;4.93;4.13;;;;;;;14.78;100.00;101950.03;5033318;28;20438;-46
2023/06/13 03:52:57;;;;;;;4.50;4.10;;;;;;;14.88;100.00;101950.53;5032595;28;20467;-43
2023/06/13 03:55:25;;;;;;;4.40;4.10;;;;;;;15.06;100.00;101955.41;5034009;28;20934;-43
2023/06/13 03:57:53;;;;;;;5.67;5.13;;;;;;;15.08;100.00;101960.59;5033770;28;20460;-45
2023/06/13 04:00:21;;;;;;;4.87;4.60;;;;;;;15.07;100.00;101950.88;5033693;28;20440;-43
2023/06/13 04:02:52;;;;;;;4.90;4.60;;;;;;;15.04;100.00;101954.78;5033121;28;20471;-45
2023/06/13 04:05:21;;;;;;;5.10;4.80;;;;;;;14.92;100.00;101950.97;5033527;28;20436;-46
2023/06/13 04:07:49;;;;;;;5.20;4.83;;;;;;;14.99;100.00;101959.09;5033797;28;20455;-45
2023/06/13 04:10:17;;;;;;;5.33;4.83;;;;;;;14.94;100.00;101952.44;5033503;28;20694;-47
2023/06/13 04:12:45;;;;;;;5.60;5.10;;;;;;;14.95;100.00;101953.28;5033012;28;20802;-45
2023/06/13 04:15:13;;;;;;;5.37;4.87;;;;;;;15.11;100.00;101952.16;5033341;28;21007;-50
2023/06/13 04:17:41;;;;;;;4.33;4.13;;;;;;;15.23;100.00;101953.25;5032201;28;20455;-45
2023/06/13 04:20:14;;;;;;;5.07;4.60;;;;;;;15.15;100.00;101956.91;5033430;28;20420;-47
2023/06/13 04:22:44;;;;;;;4.60;4.27;;;;;;;15.11;100.00;101955.66;5032621;28;20470;-48
2023/06/13 04:25:12;;;;;;;4.97;4.50;;;;;;;15.01;100.00;101951.66;5033137;28;20930;-44
2023/06/13 04:27:39;;;;;;;5.77;5.40;;;;;;;15.26;100.00;101952.88;5033014;28;20973;-44
2023/06/13 04:30:08;;;;;;;5.53;4.93;;;;;;;16.66;100.00;101944.03;5032900;28;21059;-45
2023/06/13 04:32:37;;;;;;;5.13;4.10;;;;;;;18.12;100.00;101938.81;5032624;28;20460;-47
2023/06/13 04:35:05;;;;;;;5.03;4.63;;;;;;;19.40;100.00;101931.91;5033491;28;20493;-46
2023/06/13 04:37:35;;;;;;;4.50;4.10;;;;;;;20.65;97.28;101928.28;5033111;28;20463;-49
2023/06/13 04:40:05;;;;;;;4.97;4.57;;;;;;;21.29;85.61;101929.22;5033099;28;20478;-47
2023/06/13 04:42:34;;;;;;;4.43;4.00;;;;;;;21.52;79.28;101932.72;5032288;28;20478;-45
2023/06/13 04:45:02;;;;;;;4.30;3.90;;;;;;;22.49;78.35;101933.44;5032799;28;20432;-50
2023/06/13 04:47:30;;;;;;;5.27;4.70;;;;;;;22.70;73.01;101933.84;5032805;28;20478;-49
2023/06/13 04:50:21;;;;;;;4.20;4.00;;;;;;;22.87;64.04;101931.91;5032706;28;20506;-47
2023/06/13 04:52:53;;;;;;;5.00;4.60;;;;;;;23.39;67.79;101929.66;5032137;28;20499;-45
2023/06/13 04:55:22;;;;;;;4.67;4.27;;;;;;;23.10;59.84;101918.94;5032541;28;20510;-46
2023/06/13 04:57:50;;;;;;;4.07;3.77;;;;;;;23.67;60.98;101921.31;5032448;28;20992;-46
2023/06/13 05:00:19;;;;;;;4.07;3.87;;;;;;;24.09;60.07;101921.47;5032699;28;20522;-46
2023/06/13 05:02:48;;;;;;;9.03;3.93;;;;;;;24.23;56.01;101918.09;5031947;28;20868;-46
2023/06/13 05:05:18;;;;;;;3.73;3.53;;;;;;;24.28;57.93;101930.16;5032397;28;20450;-46
2023/06/13 05:07:47;;;;;;;4.70;4.40;;;;;;;24.37;56.56;101931.31;5032291;28;20435;-44
2023/06/13 05:10:17;;;;;;;4.27;3.87;;;;;;;24.20;56.64;101925.97;5032355;28;20478;-44
2023/06/13 05:12:45;;;;;;;4.73;4.33;;;;;;;23.97;58.14;101929.81;5031617;28;20467;-47
2023/06/13 05:15:13;;;;;;;4.53;4.23;;;;;;;24.25;59.62;101927.94;5032231;28;20956;-45
2023/06/13 05:17:41;;;;;;;4.47;4.17;;;;;;;24.39;57.67;101923.69;5032402;28;20525;-48
2023/06/13 05:20:12;;;;;;;5.40;3.90;;;;;;;24.10;58.33;101934.03;5031942;28;20428;-48
2023/06/13 05:22:41;;;;;;;4.27;3.97;;;;;;;24.37;58.88;101934.84;5031670;28;20455;-50
2023/06/13 05:25:09;;;;;;;4.73;4.33;;;;;;;24.12;57.78;101930.00;5032174;28;20435;-49
2023/06/13 05:27:38;;;;;;;4.40;4.00;;;;;;;24.19;59.47;101924.34;5031755;28;20448;-48
2023/06/13 05:30:09;;;;;;;5.73;4.30;;;;;;;24.20;59.44;101932.25;5031634;28;20503;-48
2023/06/13 05:32:36;;;;;;;4.53;4.23;;;;;;;24.40;59.38;101933.53;5031379;28;20478;-45
2023/06/13 05:35:07;;;;;;;4.00;3.70;;;;;;;24.62;58.95;101932.34;5031925;28;20518;-47
2023/06/13 05:37:37;;;;;;;4.60;4.30;;;;;;;24.71;59.42;101936.22;5031754;28;21007;-48
2023/06/13 05:40:08;;;;;;;5.90;4.40;;;;;;;24.71;58.97;101935.41;5032060;28;21009;-45
2023/06/13 05:42:38;;;;;;;5.63;4.40;;;;;;;25.02;58.38;101928.28;5031293;28;20475;-46
2023/06/13 05:45:08;;;;;;;4.57;4.10;;;;;;;25.48;57.95;101932.03;5032355;28;20431;-45
2023/06/13 05:47:36;;;;;;;4.17;3.87;;;;;;;25.18;57.05;101930.00;5032049;28;20468;-52
2023/06/13 05:50:04;;;;;;;4.20;3.90;;;;;;;25.89;54.98;101927.59;5031885;28;20498;-49
2023/06/13 05:52:33;;;;;;;4.27;3.97;;;;;;;25.13;56.34;101928.06;5031127;28;20467;-47
2023/06/13 05:55:04;;;;;;;4.20;3.87;;;;;;;25.56;56.77;101926.94;5031868;28;20459;-46
2023/06/13 05:57:40;;;;;;;5.30;4.80;;;;;;;26.30;53.45;101921.94;5031793;28;20562;-45
2023/06/13 06:00:11;;;;;;;5.00;4.50;;;;;;;26.39;54.02;101920.28;5031799;28;20926;-45
2023/06/13 06:02:40;;;;;;;5.53;5.00;;;;;;;26.76;52.42;101911.78;5031094;28;20455;-45
2023/06/13 06:05:11;;;;;;;4.73;4.43;;;;;;;25.81;54.87;101918.81;5031697;28;20432;-48
2023/06/13 06:07:39;;;;;;;4.10;3.90;;;;;;;25.68;54.74;101918.50;5031560;28;20467;-44
2023/06/13 06:10:08;;;;;;;3.80;3.60;;;;;;;25.99;53.73;101916.66;5031535;28;20980;-48
2023/06/13 06:12:36;;;;;;;4.70;4.30;;;;;;;26.38;51.69;101909.63;5031204;28;20475;-46
2023/06/13 06:15:06;;;;;;;4.53;3.97;;;;;;;26.09;51.22;101905.75;5031763;28;20518;-44
2023/06/13 06:17:34;;;;;;;4.73;4.30;;;;;;;26.21;52.93;101909.91;5031682;28;20817;-46
2023/06/13 06:20:03;;;;;;;7.40;4.57;;;;;;;25.57;55.83;101909.44;5031509;28;21160;-52
2023/06/13 06:22:30;;;;;;;4.23;4.03;;;;;;;26.31;55.19;101909.09;5031178;28;20486;-48
2023/06/13 06:24:58;;;;;;;4.30;3.90;;;;;;;26.03;52.28;101909.56;5031370;28;20463;-47
2023/06/13 06:27:26;;;;;;;4.00;3.60;;;;;;;25.99;53.76;101924.84;5031466;28;20459;-47
2023/06/13 06:29:54;;;;;;;3.93;3.57;;;;;;;26.29;54.32;101908.53;5031461;28;20549;-45
2023/06/13 06:32:23;;;;;;;5.70;3.83;;;;;;;26.28;51.83;101915.91;5030710;28;20467;-49
2023/06/13 06:34:51;;;;;;;4.37;4.07;;;;;;;26.45;51.34;101912.91;5031532;28;20554;-50
2023/06/13 06:37:19;;;;;;;4.23;3.83;;;;;;;26.61;51.36;101917.25;5031038;28;20476;-48
2023/06/13 06:39:46;;;;;;;4.00;3.70;;;;;;;27.29;50.10;101909.47;5031666;28;20539;-49
2023/06/13 06:42:14;;;;;;;3.90;3.70;;;;;;;26.78;48.69;101901.38;5034454;28;20860;-52
2023/06/13 06:44:42;;;;;;;4.37;4.07;;;;;;;26.90;50.67;101921.09;5035236;28;20197;-46
2023/06/13 06:47:12;;;;;;;3.70;3.40;;;;;;;26.41;51.52;101909.06;5034940;28;20443;-48
2023/06/13 06:49:41;;;;;;;3.97;3.67;;;;;;;26.78;49.88;101898.66;5034801;28;21003;-50
2023/06/13 06:52:09;;;;;;;4.20;3.90;;;;;;;26.66;48.82;101900.03;5034212;28;20467;-51
2023/06/13 06:54:37;;;;;;;5.23;3.87;;;;;;;26.02;49.23;101914.22;5034961;28;20431;-47
2023/06/13 06:57:05;;;;;;;4.50;3.77;;;;;;;25.59;48.36;101912.75;5034903;28;20543;-47
2023/06/13 06:59:33;;;;;;;4.23;3.87;;;;;;;25.60;48.73;101908.09;5034754;28;20497;-48
2023/06/13 07:02:01;;;;;;;5.70;4.33;;;;;;;25.90;50.02;101916.38;5034013;28;20995;-50
2023/06/13 07:04:28;;;;;;;5.60;3.70;;;;;;;26.53;49.74;101906.88;5034569;28;20477;-49
2023/06/13 07:06:58;;;;;;;4.07;3.50;;;;;;;26.25;47.73;101910.97;5034463;28;20509;-45
2023/06/13 07:09:25;;;;;;;4.30;3.90;;;;;;;26.16;47.61;101920.84;5034516;28;20442;-44
2023/06/13 07:11:57;;;;;;;4.23;3.83;;;;;;;26.31;47.68;101915.34;5033997;28;20471;-45
2023/06/13 07:14:25;;;;;;;4.47;4.17;;;;;;;26.54;47.99;101907.69;5034893;28;20485;-46
2023/06/13 07:16:54;;;;;;;4.57;4.00;;;;;;;26.30;47.65;101921.94;5034314;28;20451;-49
2023/06/13 07:19:21;;;;;;;4.60;4.20;;;;;;;26.30;47.27;101916.47;5034628;28;20431;-45
2023/06/13 07:21:49;;;;;;;4.93;4.57;;;;;;;26.52;47.81;101915.38;5034382;28;20430;-48
2023/06/13 07:24:19;;;;;;;5.10;4.80;;;;;;;26.64;47.47;101922.19;5033855;28;21011;-46
2023/06/13 07:26:46;;;;;;;5.00;4.60;;;;;;;26.50;48.21;101915.63;5034006;28;20455;-48
2023/06/13 07:29:15;;;;;;;4.17;3.87;;;;;;;25.70;48.41;101919.88;5034316;28;20518;-47
2023/06/13 07:31:42;;;;;;;4.07;3.70;;;;;;;25.39;49.46;101915.34;5033758;28;20586;-52
2023/06/13 07:34:10;;;;;;;4.00;3.80;;;;;;;25.56;47.96;101917.94;5033616;28;20468;-47
2023/06/13 07:36:58;;;;;;;4.87;4.47;;;;;;;25.57;48.42;101925.84;5033693;28;20463;-48
2023/06/13 07:39:27;;;;;;;4.50;4.20;;;;;;;25.54;49.73;101911.88;5034076;28;20884;-47
2023/06/13 07:41:55;;;;;;;4.93;4.37;;;;;;;25.47;48.53;101931.25;5033199;28;20805;-51
2023/06/13 07:44:22;;;;;;;4.83;4.53;;;;;;;25.25;50.39;101909.56;5034065;28;20855;-47
2023/06/13 07:46:50;;;;;;;5.10;4.70;;;;;;;25.53;50.32;101908.38;5033751;28;20451;-47
2023/06/13 07:49:18;;;;;;;5.00;4.50;;;;;;;24.83;51.15;101905.22;5033732;28;20451;-46
2023/06/13 07:51:46;;;;;;;4.43;4.03;;;;;;;24.28;52.04;101906.44;5033550;28;20486;-52
2023/06/13 07:54:13;;;;;;;5.97;4.70;;;;;;;24.57;52.11;101912.38;5033199;28;20513;-43
2023/06/13 07:56:44;;;;;;;5.40;4.97;;;;;;;24.60;51.48;101912.69;5033475;28;20481;-46
2023/06/13 07:59:11;;;;;;;5.23;4.90;;;;;;;24.76;51.26;101908.97;5033613;28;20937;-45
2023/06/13 08:01:39;;;;;;;5.73;5.10;;;;;;;24.69;50.03;101913.84;5033655;28;20474;-44
2023/06/13 08:04:08;;;;;;;4.97;4.63;;;;;;;24.72;51.16;101913.34;5033192;28;21055;-44
2023/06/13 08:06:36;;;;;;;5.20;4.90;;;;;;;24.49;51.33;101918.34;5033342;28;20457;-52
2023/06/13 08:09:05;;;;;;;5.07;4.77;;;;;;;24.18;52.69;101911.78;5033292;28;20532;-47
2023/06/13 08:11:33;;;;;;;5.43;5.07;;;;;;;23.45;55.07;101902.25;5033323;28;20480;-47
2023/06/13 08:14:02;;;;;;;5.57;5.20;;;;;;;23.33;55.12;101904.25;5032941;28;20528;-44
2023/06/13 08:16:30;;;;;;;7.50;5.93;;;;;;;23.19;56.04;101918.47;5033115;28;20958;-45
2023/06/13 08:18:57;;;;;;;5.60;5.20;;;;;;;22.84;56.71;101902.50;5033276;28;20478;-46
2023/06/13 08:21:25;;;;;;;6.60;6.00;;;;;;;22.58;57.85;101929.25;5032972;28;20937;-44
2023/06/13 08:23:53;;;;;;;6.83;6.30;;;;;;;22.54;57.28;101906.38;5032638;28;21044;-45
2023/06/13 08:26:22;;;;;;;6.67;5.80;;;;;;;22.40;58.79;101918.63;5033292;28;20427;-45
2023/06/13 08:28:50;;;;;;;7.10;5.80;;;;;;;22.46;57.54;101917.63;5032720;28;20456;-45
2023/06/13 08:31:23;;;;;;;6.70;6.30;;;;;;;22.29;60.12;101910.53;5032856;28;20475;-47
2023/06/13 08:34:11;;;;;;;7.60;6.00;;;;;;;22.42;60.64;101907.50;5032411;28;20554;-46
2023/06/13 08:36:42;;;;;;;8.43;6.10;;;;;;;22.36;61.17;101909.31;5032742;28;20451;-49
2023/06/13 08:39:09;;;;;;;6.73;6.13;;;;;;;22.37;60.81;101904.72;5032908;28;20431;-44
2023/06/13 08:41:38;;;;;;;6.80;6.20;;;;;;;22.13;62.02;101920.34;5032652;28;20435;-45
2023/06/13 08:44:08;;;;;;;5.67;5.27;;;;;;;22.29;61.55;101919.53;5032328;28;20865;-48
2023/06/13 08:46:37;;;;;;;6.17;5.67;;;;;;;22.24;62.88;101905.88;5032570;28;20514;-44
2023/06/13 08:49:05;;;;;;;7.40;6.03;;;;;;;22.38;63.08;101915.34;5032916;28;20876;-47
2023/06/13 08:51:33;;;;;;;6.43;6.03;;;;;;;22.47;62.16;101910.31;5032631;28;20471;-46
2023/06/13 08:54:03;;;;;;;6.13;5.63;;;;;;;22.21;62.28;101914.50;5032251;28;20860;-44
2023/06/13 08:56:35;;;;;;;6.13;5.57;;;;;;;21.99;63.53;101906.22;5032528;28;20420;-45
2023/06/13 08:59:07;;;;;;;8.77;6.43;;;;;;;22.13;65.66;101912.19;5032538;28;20439;-47
2023/06/13 09:01:38;;;;;;;5.67;5.23;;;;;;;22.32;62.91;101904.63;5032545;28;20456;-45
2023/06/13 09:04:08;;;;;;;5.37;4.80;;;;;;;22.27;63.22;101907.25;5031368;28;20470;-43
2023/06/13 09:06:38;;;;;;;5.67;5.03;;;;;;;22.04;64.42;101921.81;5032868;28;20498;-44
2023/06/13 09:09:07;;;;;;;5.93;5.53;;;;;;;21.94;64.53;101911.56;5032343;28;20460;-48
2023/06/13 09:11:35;;;;;;;6.83;5.63;;;;;;;21.94;64.55;101910.75;5031921;28;20517;-45
2023/06/13 09:14:04;;;;;;;4.90;4.50;;;;;;;21.83;67.13;101928.69;5031802;28;20550;-45
2023/06/13 09:16:32;;;;;;;7.27;5.30;;;;;;;21.94;66.36;101921.59;5032193;28;20439;-47
2023/06/13 09:19:02;;;;;;;4.80;4.60;;;;;;;21.84;65.41;101927.63;5032291;28;20853;-49
2023/06/13 09:21:30;;;;;;;6.50;5.90;;;;;;;22.03;65.49;101912.81;5032283;28;20427;-49
2023/06/13 09:23:59;;;;;;;5.03;4.63;;;;;;;22.04;63.68;101910.94;5031424;28;20459;-45
2023/06/13 09:26:27;;;;;;;5.47;5.07;;;;;;;22.36;65.97;101906.63;5032052;28;20801;-50
2023/06/13 09:28:54;;;;;;;6.07;5.47;;;;;;;22.40;64.53;101918.63;5032031;28;20498;-49
2023/06/13 09:31:22;;;;;;;5.40;5.00;;;;;;;22.39;63.53;101908.84;5031790;28;20467;-45
2023/06/13 09:33:50;;;;;;;6.43;5.83;;;;;;;22.32;63.99;101908.16;5031507;28;20818;-46
2023/06/13 09:36:19;;;;;;;6.30;5.70;;;;;;;22.46;62.10;101909.47;5031821;28;20471;-49
2023/06/13 09:38:48;;;;;;;8.57;5.90;;;;;;;22.37;64.51;101899.28;5031786;28;20509;-47
2023/06/13 09:41:16;;;;;;;5.53;5.20;;;;;;;22.61;63.86;101904.28;5031955;28;20428;-50
2023/06/13 09:43:43;;;;;;;5.20;4.90;;;;;;;22.63;62.98;101901.34;5031295;28;20471;-46
2023/06/13 09:46:12;;;;;;;4.90;4.60;;;;;;;22.48;63.71;101901.09;5032049;28;20463;-49
2023/06/13 09:48:44;;;;;;;5.97;4.70;;;;;;;22.60;63.21;101905.38;5031795;28;20447;-53
2023/06/13 09:51:12;;;;;;;5.03;4.73;;;;;;;22.68;64.17;101906.03;5031717;28;20424;-51
2023/06/13 09:53:45;;;;;;;5.20;4.90;;;;;;;22.72;63.59;101909.94;5031186;28;20972;-47
2023/06/13 09:56:12;;;;;;;4.97;4.63;;;;;;;22.89;64.09;101906.09;5031950;28;20438;-50
2023/06/13 09:58:41;;;;;;;5.37;5.07;;;;;;;22.89;61.36;101908.81;5031834;28;21027;-48
2023/06/13 10:01:14;;;;;;;5.83;5.10;;;;;;;22.84;63.40;101905.22;5031989;28;20428;-52
2023/06/13 10:03:43;;;;;;;5.90;5.40;;;;;;;22.71;59.88;101919.97;5031183;28;20451;-51
2023/06/13 10:06:12;;;;;;;6.40;5.90;;;;;;;22.68;61.10;101906.88;5031869;28;20527;-50
2023/06/13 10:08:41;;;;;;;6.93;6.13;;;;;;;22.77;61.32;101929.03;5031718;28;20460;-46
2023/06/13 10:11:13;;;;;;;5.63;5.10;;;;;;;22.87;60.33;101904.72;5031692;28;20485;-51
2023/06/13 10:13:47;;;;;;;6.87;5.77;;;;;;;22.60;60.88;101894.50;5031129;28;20838;-47
2023/06/13 10:16:16;;;;;;;5.23;4.93;;;;;;;22.83;58.57;101911.72;5035317;28;20451;-45
2023/06/13 10:18:48;;;;;;;5.93;5.40;;;;;;;22.81;60.40;101911.97;5035628;28;21040;-48
2023/06/13 10:21:16;;;;;;;5.57;5.17;;;;;;;22.75;59.67;101926.56;5035385;28;20427;-51
2023/06/13 10:23:49;;;;;;;4.83;4.53;;;;;;;22.64;60.91;101910.31;5034947;28;20460;-47
2023/06/13 10:26:27;;;;;;;5.00;4.70;;;;;;;22.86;61.66;101906.59;5035330;28;20458;-49
2023/06/13 10:29:09;;;;;;;5.60;5.07;;;;;;;22.94;60.31;101908.06;5035382;28;20435;-46
2023/06/13 10:31:48;;;;;;;5.40;5.00;;;;;;;23.19;58.79;101896.72;5035206;28;20432;-46
2023/06/13 10:34:35;;;;;;;5.53;5.03;;;;;;;23.15;59.16;101912.72;5034753;28;20459;-48
2023/06/13 10:37:32;;;;;;;5.53;5.07;;;;;;;23.09;56.34;101900.94;5034979;28;21039;-47
2023/06/13 10:40:46;;;;;;;4.87;4.57;;;;;;;23.32;59.14;101899.91;5035032;28;20927;-50
2023/06/13 10:43:19;;;;;;;5.30;4.63;;;;;;;23.50;56.18;101915.94;5034423;28;20467;-45
2023/06/13 10:45:49;;;;;;;5.93;5.53;;;;;;;23.31;55.12;101892.81;5035242;28;20434;-47
2023/06/13 10:48:31;;;;;;;4.60;4.37;;;;;;;23.45;53.41;101887.81;5034867;28;20459;-47
2023/06/13 10:50:59;;;;;;;5.90;5.33;;;;;;;23.56;53.12;101889.59;5034893;28;20463;-47
2023/06/13 10:53:28;;;;;;;5.20;4.80;;;;;;;23.74;54.86;101885.72;5034261;28;20525;-45
2023/06/13 10:56:02;;;;;;;6.23;4.97;;;;;;;23.84;51.80;101891.25;5034923;28;20453;-45
2023/06/13 10:58:30;;;;;;;4.83;4.53;;;;;;;23.84;54.21;101902.13;5034999;28;20462;-50
2023/06/13 11:01:24;;;;;;;6.53;4.90;;;;;;;23.42;53.71;101897.31;5034769;28;20419;-46
2023/06/13 11:03:52;;;;;;;6.30;5.10;;;;;;;23.50;52.85;101902.34;5034005;28;20459;-45
2023/06/13 11:06:20;;;;;;;5.40;4.90;;;;;;;23.76;50.92;101884.38;5034582;28;20431;-48
2023/06/13 11:09:17;;;;;;;5.80;5.30;;;;;;;23.91;52.80;101884.53;5034804;28;20455;-46
2023/06/13 11:11:51;;;;;;;5.03;4.70;;;;;;;23.87;52.70;101891.56;5034502;28;20455;-45
2023/06/13 11:14:24;;;;;;;4.80;4.40;;;;;;;23.92;50.53;101886.19;5034104;28;20511;-51
2023/06/13 11:16:53;;;;;;;6.10;4.23;;;;;;;23.97;50.81;101897.13;5034837;28;20443;-47
2023/06/13 11:19:22;;;;;;;5.23;4.77;;;;;;;23.93;50.17;101885.09;5034506;28;20489;-51
2023/06/13 11:21:52;;;;;;;5.30;4.43;;;;;;;23.76;51.15;101887.09;5034282;28;20435;-46
2023/06/13 11:24:20;;;;;;;5.13;4.73;;;;;;;23.62;49.25;101891.31;5034027;28;20462;-48
2023/06/13 11:26:49;;;;;;;5.53;5.03;;;;;;;23.73;50.30;101897.66;5033510;28;20511;-48
2023/06/13 11:29:18;;;;;;;5.50;4.70;;;;;;;23.82;48.65;101869.72;5034328;28;20844;-51
2023/06/13 11:31:46;;;;;;;4.80;4.50;;;;;;;23.68;47.97;101866.56;5034208;28;20523;-50
2023/06/13 11:34:17;;;;;;;5.10;4.60;;;;;;;23.83;47.63;101863.22;5033594;28;20475;-49